createdAt,value
2023-07-21T00:01:29.285Z,5.07
2023-07-21T00:03:56.686Z,2.20
2023-07-21T00:06:25.927Z,2.22
2023-07-21T00:08:55.206Z,4.47
2023-07-21T00:11:22.379Z,3.85
2023-07-21T00:13:49.555Z,3.00
2023-07-21T00:16:19.263Z,4.22
2023-07-21T00:18:47.711Z,3.90
2023-07-21T00:23:42.059Z,5.05
2023-07-21T00:26:09.235Z,3.67
2023-07-21T00:28:36.438Z,5.07
2023-07-21T00:31:03.584Z,3.22
2023-07-21T00:33:30.833Z,3.67
2023-07-21T00:35:58.350Z,3.42
2023-07-21T00:38:26.461Z,3.17
2023-07-21T00:40:53.758Z,2.90
2023-07-21T00:43:20.927Z,2.75
2023-07-21T00:45:48.541Z,3.85
2023-07-21T00:48:18.043Z,3.80
2023-07-21T00:50:46.942Z,4.43
2023-07-21T00:53:14.330Z,3.17
2023-07-21T00:55:47.199Z,3.40
2023-07-21T00:58:14.478Z,5.03
2023-07-21T01:00:42.215Z,4.97
2023-07-21T01:03:13.526Z,4.18
2023-07-21T01:05:42.544Z,4.07
2023-07-21T01:08:10.613Z,4.78
2023-07-21T01:10:39.449Z,6.13
2023-07-21T01:13:07.073Z,4.45
2023-07-21T01:15:35.193Z,4.43
2023-07-21T01:18:02.515Z,2.60
2023-07-21T01:20:30.228Z,3.10
2023-07-21T01:22:59.399Z,3.03
2023-07-21T01:25:26.799Z,3.88
2023-07-21T01:27:58.201Z,3.58
2023-07-21T01:30:26.014Z,2.95
2023-07-21T01:32:53.382Z,5.22
2023-07-21T01:35:20.801Z,2.78
2023-07-21T01:37:49.452Z,6.05
2023-07-21T01:40:17.090Z,6.53
2023-07-21T01:42:45.118Z,3.92
2023-07-21T01:45:12.305Z,5.90
2023-07-21T01:47:39.737Z,3.70
2023-07-21T01:50:10.796Z,5.18
2023-07-21T01:52:38.647Z,3.00
2023-07-21T01:55:14.785Z,4.00
2023-07-21T01:57:46.458Z,3.75
2023-07-21T02:00:14.769Z,2.90
2023-07-21T02:02:42.729Z,4.68
2023-07-21T02:05:20.305Z,4.82
2023-07-21T02:07:47.584Z,3.88
2023-07-21T02:10:14.848Z,5.03
2023-07-21T02:12:42.254Z,4.15
2023-07-21T02:15:09.744Z,5.68
2023-07-21T02:17:40.257Z,3.63
2023-07-21T02:20:10.810Z,4.55
2023-07-21T02:22:39.183Z,4.53
2023-07-21T02:25:06.665Z,3.63
2023-07-21T02:27:34.253Z,6.40
2023-07-21T02:30:01.839Z,6.50
2023-07-21T02:32:31.903Z,4.15
2023-07-21T02:35:02.124Z,6.15
2023-07-21T02:37:29.351Z,4.07
2023-07-21T02:39:57.363Z,3.63
2023-07-21T02:42:25.399Z,4.78
2023-07-21T02:44:52.862Z,4.00
2023-07-21T02:47:20.284Z,3.38
2023-07-21T02:49:47.509Z,4.88
2023-07-21T02:52:14.749Z,4.53
2023-07-21T02:54:41.996Z,4.80
2023-07-21T02:57:09.326Z,3.33
2023-07-21T02:59:37.665Z,3.28
2023-07-21T03:02:05.062Z,3.88
2023-07-21T03:04:33.003Z,4.05
2023-07-21T03:07:00.378Z,4.70
2023-07-21T03:09:28.455Z,5.53
2023-07-21T03:11:57.922Z,4.68
2023-07-21T03:14:25.249Z,5.97
2023-07-21T03:16:52.556Z,7.03
2023-07-21T03:19:19.855Z,6.00
2023-07-21T03:21:47.053Z,4.57
2023-07-21T03:24:15.417Z,4.97
2023-07-21T03:26:42.915Z,5.15
2023-07-21T03:29:10.114Z,5.70
2023-07-21T03:31:37.504Z,5.95
2023-07-21T03:34:04.727Z,5.55
2023-07-21T03:36:31.940Z,6.43
2023-07-21T03:38:59.405Z,4.60
2023-07-21T03:41:26.655Z,5.85
2023-07-21T03:43:53.810Z,4.80
2023-07-21T03:46:21.128Z,6.82
2023-07-21T03:48:48.540Z,5.90
2023-07-21T03:51:16.011Z,4.93
2023-07-21T03:53:43.224Z,5.28
2023-07-21T03:56:10.435Z,6.93
2023-07-21T03:58:37.768Z,5.53
2023-07-21T04:01:06.104Z,5.68
2023-07-21T04:03:33.626Z,6.20
2023-07-21T04:06:05.563Z,4.68
2023-07-21T04:08:32.715Z,6.03
2023-07-21T04:10:59.893Z,4.90
2023-07-21T04:13:28.214Z,5.32
2023-07-21T04:15:55.419Z,6.63
2023-07-21T04:18:22.808Z,6.30
2023-07-21T04:20:49.989Z,6.65
2023-07-21T04:23:17.310Z,6.10
2023-07-21T04:25:44.484Z,5.43
2023-07-21T04:28:11.674Z,4.68
2023-07-21T04:30:38.956Z,4.88
2023-07-21T04:33:06.182Z,5.43
2023-07-21T04:35:33.426Z,5.18
2023-07-21T04:38:00.665Z,5.65
2023-07-21T04:40:28.088Z,5.82
2023-07-21T04:42:55.388Z,6.18
2023-07-21T04:45:22.535Z,5.47
2023-07-21T04:47:50.475Z,5.50
2023-07-21T04:50:17.813Z,5.57
2023-07-21T04:52:45.001Z,6.05
2023-07-21T04:55:12.279Z,5.45
2023-07-21T04:57:39.684Z,5.57
2023-07-21T05:00:12.910Z,5.13
2023-07-21T05:02:40.873Z,6.35
2023-07-21T05:05:08.825Z,6.30
2023-07-21T05:07:36.092Z,5.15
2023-07-21T05:10:03.410Z,6.15
2023-07-21T05:12:30.794Z,4.53
2023-07-21T05:14:58.873Z,5.10
2023-07-21T05:19:55.581Z,6.78
2023-07-21T05:22:22.823Z,6.80
2023-07-21T05:24:52.119Z,7.13
2023-07-21T05:27:20.134Z,7.03
2023-07-21T05:32:16.652Z,8.55
2023-07-21T05:34:44.228Z,6.78
2023-07-21T05:37:14.446Z,5.28
2023-07-21T05:39:42.545Z,7.07
2023-07-21T05:42:09.758Z,13.93
2023-07-21T05:44:39.006Z,6.40
2023-07-21T05:47:07.430Z,5.28
2023-07-21T05:49:34.874Z,6.32
2023-07-21T05:52:02.195Z,5.90
2023-07-21T05:54:29.404Z,6.18
2023-07-21T05:56:57.798Z,6.88
2023-07-21T05:59:25.218Z,5.63
2023-07-21T06:01:52.613Z,4.88
2023-07-21T06:04:21.090Z,4.70
2023-07-21T06:06:48.576Z,4.40
2023-07-21T06:09:15.813Z,3.75
2023-07-21T06:11:43.033Z,6.45
2023-07-21T06:14:10.355Z,9.15
2023-07-21T06:16:37.736Z,11.38
2023-07-21T06:19:04.978Z,4.68
2023-07-21T06:21:32.329Z,2.50
2023-07-21T06:23:59.901Z,5.82
2023-07-21T06:26:28.121Z,2.25
2023-07-21T06:28:55.540Z,2.53
2023-07-21T06:31:23.065Z,1.80
2023-07-21T06:33:50.492Z,2.97
2023-07-21T06:36:20.698Z,2.70
2023-07-21T06:38:47.948Z,3.15
2023-07-21T06:41:15.178Z,3.60
2023-07-21T06:43:42.529Z,2.72
2023-07-21T09:49:55.119Z,3.05
2023-07-21T09:52:23.503Z,4.20
2023-07-21T10:20:09.316Z,3.78
2023-07-21T10:22:36.610Z,3.60
2023-07-21T10:25:05.640Z,3.30
2023-07-21T10:27:32.896Z,4.55
2023-07-21T10:30:20.413Z,3.58
2023-07-21T10:32:48.121Z,4.13
2023-07-21T10:35:34.441Z,2.95
2023-07-21T10:38:17.005Z,3.42
2023-07-21T10:40:44.807Z,3.50
2023-07-21T10:43:12.475Z,3.15
2023-07-21T10:45:40.230Z,4.35
2023-07-21T10:48:15.450Z,4.70
2023-07-21T11:34:31.633Z,3.00
2023-07-21T11:37:03.115Z,4.47
2023-07-21T12:17:23.187Z,3.33
2023-07-21T12:19:50.953Z,4.72
2023-07-21T12:22:18.133Z,6.47
2023-07-21T12:24:45.693Z,6.78
2023-07-21T12:27:13.466Z,5.35
2023-07-21T12:29:46.152Z,5.97
2023-07-21T12:32:14.690Z,4.50
2023-07-21T12:34:43.855Z,5.75
2023-07-21T12:37:11.375Z,4.72
2023-07-21T12:39:38.756Z,4.20
2023-07-21T12:42:07.594Z,6.40
2023-07-21T13:19:31.656Z,3.75
2023-07-21T14:50:50.467Z,9.07
2023-07-21T14:53:18.450Z,10.13
2023-07-21T14:55:45.921Z,8.38
2023-07-21T14:58:13.147Z,8.55
2023-07-21T15:00:40.331Z,10.98
2023-07-21T15:03:07.824Z,10.38
2023-07-21T15:05:35.276Z,11.07
2023-07-21T15:08:04.359Z,11.38
2023-07-21T15:10:31.853Z,10.82
2023-07-21T15:13:00.397Z,10.18
2023-07-21T15:15:27.712Z,9.35
2023-07-21T15:17:55.838Z,11.98
2023-07-21T15:20:26.212Z,9.85
2023-07-21T15:22:53.540Z,8.15
2023-07-21T15:25:20.716Z,10.85
2023-07-21T15:27:48.541Z,9.30
2023-07-21T15:30:15.886Z,8.98
2023-07-21T15:32:43.395Z,9.65
2023-07-21T15:35:11.067Z,8.68
2023-07-21T15:37:38.848Z,12.25
2023-07-21T15:40:16.446Z,9.20
2023-07-21T15:42:45.805Z,11.18
2023-07-21T15:45:13.420Z,9.70
2023-07-21T15:47:40.816Z,10.75
2023-07-21T15:50:12.583Z,10.25
2023-07-21T15:52:43.355Z,8.65
2023-07-21T15:55:12.732Z,7.88
2023-07-21T15:57:40.871Z,10.77
2023-07-21T16:00:20.516Z,8.10
2023-07-21T16:02:48.517Z,9.95
2023-07-21T16:05:18.641Z,8.40
2023-07-21T16:07:45.874Z,7.95
2023-07-21T16:10:14.661Z,10.18
2023-07-21T16:12:42.395Z,9.07
2023-07-21T16:15:09.996Z,9.15
2023-07-21T16:17:37.418Z,11.18
2023-07-21T16:20:09.070Z,11.40
2023-07-21T16:22:38.168Z,9.57
2023-07-21T16:27:52.376Z,10.50
2023-07-21T16:33:00.755Z,8.45
2023-07-21T16:35:28.334Z,8.43
2023-07-21T16:37:55.525Z,11.27
2023-07-21T16:40:23.363Z,11.10
2023-07-21T16:42:50.695Z,9.13
2023-07-21T16:45:18.653Z,9.52
2023-07-21T16:47:46.350Z,8.25
2023-07-21T16:50:14.071Z,6.78
2023-07-21T16:52:41.489Z,5.63
2023-07-21T16:55:09.184Z,5.85
2023-07-21T16:57:36.505Z,5.78
2023-07-21T17:00:11.585Z,6.38
2023-07-21T17:02:40.786Z,6.35
2023-07-21T17:05:24.567Z,7.45
2023-07-21T17:07:56.117Z,6.55
2023-07-21T17:10:23.475Z,6.00
2023-07-21T17:12:50.970Z,8.50
2023-07-21T17:15:18.502Z,7.88
2023-07-21T17:17:45.758Z,5.57
2023-07-21T17:20:14.370Z,4.25
2023-07-21T17:22:48.662Z,5.70
2023-07-21T17:25:16.493Z,5.57
2023-07-21T17:27:43.853Z,6.93
2023-07-21T17:30:11.637Z,5.78
2023-07-21T17:32:40.426Z,6.30
2023-07-21T17:35:08.742Z,6.88
2023-07-21T17:40:09.015Z,6.70
2023-07-21T17:42:36.250Z,8.32
2023-07-21T17:45:04.417Z,5.25
2023-07-21T17:47:32.536Z,5.57
2023-07-21T17:50:00.171Z,8.05
2023-07-21T17:52:27.523Z,6.65
2023-07-21T17:54:55.448Z,6.47
2023-07-21T17:57:22.860Z,5.95
2023-07-21T17:59:50.261Z,6.60
2023-07-21T18:02:18.334Z,7.68
2023-07-21T18:04:46.268Z,6.75
2023-07-21T18:07:19.795Z,8.30
2023-07-21T18:09:47.935Z,7.10
2023-07-21T18:12:17.397Z,7.80
2023-07-21T18:14:52.818Z,6.70
2023-07-21T18:17:21.911Z,8.82
2023-07-21T18:19:53.624Z,7.43
2023-07-21T18:22:22.554Z,7.80
2023-07-21T18:24:50.377Z,7.75
2023-07-21T18:27:18.151Z,6.38
2023-07-21T18:29:46.128Z,7.80
2023-07-21T18:32:13.372Z,7.25
2023-07-21T18:34:40.688Z,6.93
2023-07-21T18:37:08.143Z,5.47
2023-07-21T18:39:35.703Z,6.63
2023-07-21T18:42:03.082Z,7.93
2023-07-21T18:44:34.025Z,7.32
2023-07-21T18:47:01.927Z,8.43
2023-07-21T18:49:31.598Z,7.38
2023-07-21T18:51:59.772Z,8.30
2023-07-21T18:54:27.558Z,6.95
2023-07-21T18:56:54.873Z,8.73
2023-07-21T18:59:22.576Z,7.82
2023-07-21T19:01:49.992Z,9.25
2023-07-21T19:04:17.275Z,9.75
2023-07-21T19:06:44.516Z,10.30
2023-07-21T19:09:12.177Z,9.95
2023-07-21T19:11:39.328Z,11.40
2023-07-21T19:14:06.633Z,9.63
2023-07-21T19:16:34.035Z,9.65
2023-07-21T19:19:01.472Z,10.55
2023-07-21T19:21:30.129Z,9.02
2023-07-21T19:23:59.745Z,9.10
2023-07-21T19:26:28.676Z,9.13
2023-07-21T19:28:56.731Z,8.68
2023-07-21T19:31:24.606Z,10.18
2023-07-21T19:33:52.392Z,8.80
2023-07-21T19:36:19.990Z,10.60
2023-07-21T19:38:50.364Z,9.73
2023-07-21T19:41:20.178Z,9.85
2023-07-21T19:43:48.289Z,11.68
2023-07-21T19:46:16.569Z,12.77
2023-07-21T19:48:44.438Z,9.75
2023-07-21T19:51:16.466Z,10.13
2023-07-21T19:53:44.110Z,9.70
2023-07-21T19:56:12.179Z,10.73
2023-07-21T19:58:40.159Z,9.35
2023-07-21T20:01:09.449Z,9.95
2023-07-21T20:03:39.471Z,10.93
2023-07-21T20:06:09.802Z,10.27
2023-07-21T20:08:37.266Z,8.77
2023-07-21T20:11:05.596Z,8.98
2023-07-21T20:13:33.423Z,8.50
2023-07-21T20:16:00.768Z,9.80
2023-07-21T20:18:28.437Z,8.85
2023-07-21T20:20:55.771Z,8.65
2023-07-21T20:23:23.012Z,10.85
2023-07-21T20:25:50.331Z,11.27
2023-07-21T20:28:18.054Z,9.60
2023-07-21T20:30:45.594Z,11.23
2023-07-21T20:33:16.213Z,9.65
2023-07-21T20:35:44.081Z,10.07
2023-07-21T20:38:12.044Z,9.65
2023-07-21T20:40:39.791Z,10.85
2023-07-21T20:43:07.156Z,12.23
2023-07-21T20:45:37.513Z,11.48
2023-07-21T20:48:05.015Z,10.10
2023-07-21T20:50:34.405Z,11.18
2023-07-21T20:53:01.965Z,11.70
2023-07-21T20:55:29.239Z,10.68
2023-07-21T20:57:56.983Z,10.60
2023-07-21T21:00:25.029Z,12.25
2023-07-21T21:02:52.416Z,9.40
2023-07-21T21:05:20.576Z,12.10
2023-07-21T21:07:48.447Z,13.85
2023-07-21T21:10:16.394Z,9.27
2023-07-21T21:12:44.046Z,12.00
2023-07-21T21:15:12.189Z,10.55
2023-07-21T21:17:40.603Z,11.30
2023-07-21T21:20:08.610Z,11.25
2023-07-21T21:22:38.209Z,10.40
2023-07-21T21:25:07.925Z,10.23
2023-07-21T21:27:36.319Z,12.93
2023-07-21T21:30:03.877Z,12.73
2023-07-21T21:32:43.705Z,10.05
2023-07-21T21:35:11.332Z,11.45
2023-07-21T21:37:38.606Z,11.45
2023-07-21T21:40:06.603Z,11.38
2023-07-21T21:42:33.919Z,13.18
2023-07-21T21:45:01.438Z,11.20
2023-07-21T21:47:28.715Z,12.75
2023-07-21T21:49:55.937Z,11.13
2023-07-21T21:52:23.149Z,11.70
2023-07-21T21:54:50.441Z,12.68
2023-07-21T21:57:17.632Z,12.68
2023-07-21T21:59:47.009Z,14.07
2023-07-21T22:02:14.247Z,15.93
2023-07-21T22:04:41.632Z,14.52
2023-07-21T22:07:08.928Z,12.27
2023-07-21T22:09:36.120Z,13.55
2023-07-21T22:12:03.835Z,13.20
2023-07-21T22:14:31.300Z,14.73
2023-07-21T22:16:58.678Z,13.60
2023-07-21T22:19:25.968Z,15.38
2023-07-21T22:21:53.216Z,13.18
2023-07-21T22:24:20.803Z,14.88
2023-07-21T22:26:50.561Z,14.73
2023-07-21T22:29:17.733Z,15.77
2023-07-21T22:31:45.225Z,15.63
2023-07-21T22:34:12.657Z,13.27
2023-07-21T22:36:39.902Z,13.30
2023-07-21T22:39:07.673Z,15.13
2023-07-21T22:41:35.080Z,14.00
2023-07-21T22:44:02.242Z,14.43
2023-07-21T22:46:29.980Z,13.98
2023-07-21T22:48:57.689Z,15.65
2023-07-21T22:51:25.202Z,14.82
2023-07-21T22:53:52.419Z,13.13
2023-07-21T22:56:19.794Z,14.43
2023-07-21T22:58:47.024Z,13.77
2023-07-21T23:01:14.342Z,14.68
2023-07-21T23:03:41.588Z,14.38
2023-07-21T23:06:08.859Z,15.10
2023-07-21T23:08:36.145Z,15.20
2023-07-21T23:11:03.825Z,13.98
2023-07-21T23:13:31.361Z,15.25
2023-07-21T23:15:59.907Z,15.10
2023-07-21T23:20:54.660Z,17.02
2023-07-21T23:23:21.830Z,13.90
2023-07-21T23:25:49.515Z,16.88
2023-07-21T23:28:16.842Z,16.52
2023-07-21T23:30:45.475Z,16.38
2023-07-21T23:33:12.851Z,16.08
2023-07-21T23:35:40.051Z,15.35
2023-07-21T23:38:07.441Z,17.98
2023-07-21T23:40:34.664Z,13.05
2023-07-21T23:43:01.935Z,15.25
2023-07-21T23:45:29.078Z,13.48
2023-07-21T23:47:56.358Z,14.98
2023-07-21T23:50:24.208Z,14.30
2023-07-21T23:52:51.495Z,14.77
2023-07-21T23:55:18.871Z,16.83
2023-07-21T23:57:46.102Z,14.57
